Terminal Aerodrome Forecast
Issued by NWS Wakefield, VA

Home | Current Version | Previous Version | Text Only | Print | Product List | Glossary On
Versions: 1 2 3 4 5 6 7 8 9 10 11 12 13 14
000
FTUS41 KAKQ 192300
TAFRIC
TAF
KRIC 192335Z 2000/2024 05006KT P6SM BKN120 OVC200
     FM201400 06013G20KT P6SM SCT100 BKN200
     FM202100 05011KT P6SM BKN250=

USA.gov is the U.S. government's official web portal to all federal, state and local government web resources and services.